Time;durP1;ratioP1;P1;durP2;ratioP2;P2;SDS_P1;SDS_P2;PMS_P1;PMS_P2;Temp;Humidity;BMP_temperature;BMP_pressure;BME280_temperature;BME280_humidity;BME280_pressure;Samples;Min_cycle;Max_cycle;Signal;HPM_P1;HPM_P2
2023/05/25 00:00:07;;;;;;;8.50;4.53;;;8.20;99.90;;;;;;471131;251;28012;-82
2023/05/25 00:02:07;;;;;;;15.37;4.70;;;8.20;99.90;;;;;;471191;251;27783;-81
2023/05/25 00:04:09;;;;;;;13.63;4.60;;;8.10;99.90;;;;;;471212;250;27984;-82
2023/05/25 00:06:10;;;;;;;13.50;4.80;;;8.20;99.90;;;;;;471183;250;27930;-80
2023/05/25 00:08:11;;;;;;;12.50;5.30;;;8.30;99.90;;;;;;471158;251;27562;-81
2023/05/25 00:10:12;;;;;;;15.23;4.77;;;8.30;99.90;;;;;;471177;253;27898;-83
2023/05/25 00:12:14;;;;;;;23.53;5.83;;;8.20;99.90;;;;;;471142;250;27654;-80
2023/05/25 00:14:15;;;;;;;11.60;4.80;;;8.30;99.90;;;;;;471115;247;28036;-81
2023/05/25 00:16:16;;;;;;;11.60;5.37;;;8.30;99.90;;;;;;471180;249;27943;-80
2023/05/25 00:18:17;;;;;;;11.10;5.17;;;8.30;99.90;;;;;;471250;250;27955;-79
2023/05/25 00:20:19;;;;;;;8.60;4.40;;;8.30;99.90;;;;;;471144;249;27910;-81
2023/05/25 00:22:20;;;;;;;13.23;5.80;;;8.30;99.90;;;;;;471167;250;27904;-84
2023/05/25 00:24:21;;;;;;;22.23;5.30;;;8.30;99.90;;;;;;471146;253;27934;-79
2023/05/25 00:26:22;;;;;;;17.83;5.27;;;8.30;99.90;;;;;;471174;253;27744;-84
2023/05/25 00:28:24;;;;;;;17.47;5.53;;;8.40;99.90;;;;;;471193;250;27973;-84
2023/05/25 00:30:25;;;;;;;11.23;4.87;;;8.30;99.90;;;;;;471171;251;27558;-82
2023/05/25 00:32:26;;;;;;;15.10;5.00;;;8.30;99.90;;;;;;471196;248;27907;-82
2023/05/25 00:34:27;;;;;;;11.87;5.60;;;8.30;99.90;;;;;;471237;250;28127;-80
2023/05/25 00:36:29;;;;;;;9.90;5.27;;;8.20;99.90;;;;;;471168;253;28019;-84
2023/05/25 00:38:30;;;;;;;13.37;5.30;;;8.20;99.90;;;;;;471194;247;27804;-80
2023/05/25 00:40:31;;;;;;;21.63;5.67;;;8.30;99.90;;;;;;471240;247;27757;-81
2023/05/25 00:42:32;;;;;;;14.17;5.13;;;8.30;99.90;;;;;;471201;249;27434;-80
2023/05/25 00:44:34;;;;;;;14.60;5.50;;;8.30;99.90;;;;;;471173;245;27862;-80
2023/05/25 00:46:35;;;;;;;12.20;5.50;;;8.20;99.90;;;;;;471199;246;27938;-82
2023/05/25 00:48:36;;;;;;;14.63;4.77;;;8.20;99.90;;;;;;471168;252;28100;-82
2023/05/25 00:50:38;;;;;;;15.27;5.57;;;8.20;99.90;;;;;;471167;253;28320;-84
2023/05/25 00:52:39;;;;;;;18.10;5.23;;;8.10;99.90;;;;;;471130;250;27913;-83
2023/05/25 00:54:40;;;;;;;19.93;6.13;;;8.10;99.90;;;;;;471146;253;28250;-83
2023/05/25 00:56:41;;;;;;;16.03;5.40;;;8.10;99.90;;;;;;471142;247;27703;-83
2023/05/25 00:58:42;;;;;;;10.50;4.90;;;8.10;99.90;;;;;;471270;253;27558;-81
2023/05/25 01:00:44;;;;;;;18.70;6.20;;;8.10;99.90;;;;;;471239;249;28108;-81
2023/05/25 01:02:45;;;;;;;19.20;6.37;;;8.10;99.90;;;;;;471205;252;28052;-81
2023/05/25 01:04:46;;;;;;;14.30;5.47;;;8.00;99.90;;;;;;471188;249;27644;-81
2023/05/25 01:06:47;;;;;;;24.80;5.60;;;8.00;99.90;;;;;;471249;253;27858;-82
2023/05/25 01:08:49;;;;;;;12.33;4.90;;;8.00;99.90;;;;;;471183;252;28068;-81
2023/05/25 01:10:50;;;;;;;16.83;5.43;;;8.00;99.90;;;;;;471153;253;27658;-84
2023/05/25 01:12:51;;;;;;;21.53;5.57;;;8.00;99.90;;;;;;471180;250;27652;-82
2023/05/25 01:14:52;;;;;;;13.53;5.40;;;7.90;99.90;;;;;;471201;252;27860;-82
2023/05/25 01:16:55;;;;;;;11.07;5.30;;;7.90;99.90;;;;;;471187;246;27788;-83
2023/05/25 01:18:55;;;;;;;14.30;5.80;;;7.90;99.90;;;;;;471198;249;28069;-80
2023/05/25 01:20:56;;;;;;;12.57;5.33;;;7.80;99.90;;;;;;471233;249;28321;-84
2023/05/25 01:22:57;;;;;;;16.83;5.40;;;7.80;99.90;;;;;;471220;250;27913;-83
2023/05/25 01:25:01;;;;;;;12.70;5.00;;;7.80;99.90;;;;;;471244;250;27887;-83
2023/05/25 01:27:00;;;;;;;14.37;5.40;;;7.70;99.90;;;;;;471141;251;28040;-81
2023/05/25 01:29:01;;;;;;;12.17;5.30;;;7.70;99.90;;;;;;471241;250;27874;-80
2023/05/25 01:31:02;;;;;;;11.57;5.50;;;7.70;99.90;;;;;;471236;249;27897;-84
2023/05/25 01:33:04;;;;;;;14.47;6.27;;;7.70;99.90;;;;;;471239;252;27693;-81
2023/05/25 01:35:05;;;;;;;13.60;5.27;;;7.60;99.90;;;;;;471190;250;27813;-81
2023/05/25 01:37:06;;;;;;;8.40;4.63;;;7.60;99.90;;;;;;471243;253;28047;-81
2023/05/25 01:39:09;;;;;;;14.60;5.27;;;7.60;99.90;;;;;;471188;249;28077;-82
2023/05/25 01:41:09;;;;;;;16.60;5.97;;;7.60;99.90;;;;;;471149;251;27568;-82
2023/05/25 01:43:10;;;;;;;13.87;5.23;;;7.60;99.90;;;;;;471239;252;27668;-80
2023/05/25 01:45:11;;;;;;;10.60;5.40;;;7.60;99.90;;;;;;471209;253;28088;-82
2023/05/25 01:47:12;;;;;;;12.37;4.73;;;7.60;99.90;;;;;;471180;253;27822;-83
2023/05/25 01:49:14;;;;;;;10.00;5.23;;;7.60;99.90;;;;;;471229;249;28038;-81
2023/05/25 01:51:15;;;;;;;15.23;5.10;;;7.60;99.90;;;;;;471190;249;27571;-81
2023/05/25 01:53:16;;;;;;;13.13;6.10;;;7.60;99.90;;;;;;471181;249;28063;-80
2023/05/25 01:55:17;;;;;;;15.60;5.43;;;7.60;99.90;;;;;;471251;249;27944;-81
2023/05/25 01:57:19;;;;;;;8.77;4.93;;;7.60;99.90;;;;;;471198;251;27908;-84
2023/05/25 01:59:20;;;;;;;14.67;5.80;;;7.50;99.90;;;;;;471194;253;28075;-83
2023/05/25 02:01:21;;;;;;;8.50;5.10;;;7.60;99.90;;;;;;471148;250;27673;-81
2023/05/25 02:03:22;;;;;;;11.00;4.70;;;7.50;99.90;;;;;;471170;252;27820;-83
2023/05/25 02:05:24;;;;;;;10.97;5.40;;;7.50;99.90;;;;;;471147;251;27939;-81
2023/05/25 02:07:25;;;;;;;18.57;5.97;;;7.50;99.90;;;;;;471193;249;27924;-80
2023/05/25 02:09:26;;;;;;;18.20;5.60;;;7.50;99.90;;;;;;471210;249;27889;-80
2023/05/25 02:11:27;;;;;;;17.40;5.40;;;7.50;99.90;;;;;;471195;250;27802;-80
2023/05/25 02:13:29;;;;;;;10.20;5.80;;;7.50;99.90;;;;;;471178;253;27939;-82
2023/05/25 02:15:30;;;;;;;13.93;5.57;;;7.50;99.90;;;;;;471207;246;27887;-80
2023/05/25 02:17:31;;;;;;;11.17;5.00;;;7.50;99.90;;;;;;471264;249;27814;-83
2023/05/25 02:19:32;;;;;;;12.30;4.60;;;7.50;99.90;;;;;;471304;249;27932;-80
2023/05/25 02:21:35;;;;;;;14.70;5.00;;;7.50;99.90;;;;;;471231;249;27582;-80
2023/05/25 02:23:35;;;;;;;20.87;6.10;;;7.50;99.90;;;;;;477368;235;27762;-81
2023/05/25 02:25:36;;;;;;;9.43;5.50;;;7.40;99.90;;;;;;479895;245;28005;-80
2023/05/25 02:27:37;;;;;;;10.43;5.80;;;7.40;99.90;;;;;;479885;245;28060;-83
2023/05/25 02:29:39;;;;;;;11.43;5.70;;;7.40;99.90;;;;;;479868;248;27571;-82
2023/05/25 02:31:40;;;;;;;13.73;5.47;;;7.40;99.90;;;;;;479871;244;28130;-82
2023/05/25 02:33:41;;;;;;;8.80;5.30;;;7.40;99.90;;;;;;479851;245;28035;-84
2023/05/25 02:35:43;;;;;;;10.30;5.57;;;7.30;99.90;;;;;;479861;245;27735;-82
2023/05/25 02:37:44;;;;;;;11.80;5.50;;;7.30;99.90;;;;;;479853;245;27994;-81
2023/05/25 02:39:45;;;;;;;9.23;5.57;;;7.30;99.90;;;;;;479898;248;28520;-82
2023/05/25 02:41:46;;;;;;;9.93;5.00;;;7.30;99.90;;;;;;479870;245;28058;-81
2023/05/25 02:43:48;;;;;;;9.80;4.60;;;7.30;99.90;;;;;;479872;247;27992;-81
2023/05/25 02:45:49;;;;;;;17.97;5.30;;;7.30;99.90;;;;;;479857;247;28000;-82
2023/05/25 02:47:50;;;;;;;12.37;6.00;;;7.20;99.90;;;;;;479880;245;28075;-82
2023/05/25 02:49:51;;;;;;;11.93;6.07;;;7.30;99.90;;;;;;479871;245;28007;-81
2023/05/25 02:51:52;;;;;;;12.40;5.80;;;7.30;99.90;;;;;;479886;248;27991;-80
2023/05/25 02:53:54;;;;;;;13.27;6.70;;;7.20;99.90;;;;;;479884;248;28080;-85
2023/05/25 02:55:55;;;;;;;11.97;6.23;;;7.30;99.90;;;;;;479854;246;28007;-81
2023/05/25 02:57:57;;;;;;;13.40;6.10;;;7.30;99.90;;;;;;479890;247;27954;-81
2023/05/25 02:59:57;;;;;;;13.90;6.70;;;7.30;99.90;;;;;;479822;244;28009;-84
2023/05/25 03:01:59;;;;;;;10.83;5.63;;;7.20;99.90;;;;;;479802;248;27855;-81
2023/05/25 03:04:00;;;;;;;17.53;6.83;;;7.20;99.90;;;;;;479853;248;27819;-81
2023/05/25 03:06:02;;;;;;;15.40;7.60;;;7.20;99.90;;;;;;479791;248;28033;-81
2023/05/25 03:08:02;;;;;;;13.50;6.57;;;7.20;99.90;;;;;;479807;248;27885;-80
2023/05/25 03:10:04;;;;;;;10.53;6.17;;;7.10;99.90;;;;;;479874;247;27875;-82
2023/05/25 03:12:05;;;;;;;9.67;5.80;;;7.10;99.90;;;;;;479888;248;27536;-79
2023/05/25 03:14:06;;;;;;;13.07;6.73;;;7.10;99.90;;;;;;479883;248;27985;-79
2023/05/25 03:16:07;;;;;;;15.53;6.60;;;7.10;99.90;;;;;;479865;248;27878;-81
2023/05/25 03:18:09;;;;;;;13.60;6.77;;;7.10;99.90;;;;;;479857;246;27993;-80
2023/05/25 03:20:10;;;;;;;24.47;7.03;;;7.10;99.90;;;;;;479853;248;27711;-83
2023/05/25 03:22:11;;;;;;;15.10;7.03;;;7.10;99.90;;;;;;479830;248;27863;-82
2023/05/25 03:24:12;;;;;;;11.70;6.90;;;7.00;99.90;;;;;;479791;245;28204;-83
2023/05/25 03:26:14;;;;;;;11.33;6.10;;;7.00;99.90;;;;;;479812;248;28053;-83
2023/05/25 03:28:15;;;;;;;18.37;6.70;;;7.00;99.90;;;;;;479877;244;28520;-82
2023/05/25 03:30:16;;;;;;;15.77;6.97;;;7.00;99.90;;;;;;479869;244;27625;-81
2023/05/25 03:32:17;;;;;;;11.87;6.10;;;7.00;99.90;;;;;;479834;248;27618;-83
2023/05/25 03:34:23;;;;;;;10.50;6.90;;;7.00;99.90;;;;;;479874;248;28097;-82
2023/05/25 03:36:26;;;;;;;13.30;7.17;;;7.00;99.90;;;;;;479790;245;27959;-84
2023/05/25 03:38:24;;;;;;;14.33;6.77;;;7.00;99.90;;;;;;479661;248;27989;-79
2023/05/25 03:40:25;;;;;;;14.30;6.57;;;7.00;99.90;;;;;;479870;245;28035;-81
2023/05/25 03:42:26;;;;;;;12.90;6.80;;;7.00;99.90;;;;;;479861;248;27933;-83
2023/05/25 03:44:28;;;;;;;15.20;6.83;;;7.00;99.90;;;;;;479786;245;27872;-82
2023/05/25 03:46:29;;;;;;;15.53;6.70;;;7.00;99.90;;;;;;479841;248;27511;-81
2023/05/25 03:48:30;;;;;;;15.50;6.80;;;7.00;99.90;;;;;;479820;248;27873;-83
2023/05/25 03:50:33;;;;;;;17.40;6.90;;;7.00;99.90;;;;;;479821;245;28838;-83
2023/05/25 03:52:33;;;;;;;12.80;7.07;;;7.00;99.90;;;;;;479768;248;28007;-83
2023/05/25 03:54:34;;;;;;;13.40;7.20;;;7.00;99.90;;;;;;479831;244;28137;-83
2023/05/25 03:56:35;;;;;;;17.00;6.97;;;7.00;99.90;;;;;;479900;245;27963;-81
2023/05/25 03:58:36;;;;;;;14.00;6.80;;;7.10;99.90;;;;;;479815;244;28150;-81
2023/05/25 04:00:38;;;;;;;12.73;7.17;;;7.10;99.90;;;;;;479882;244;27987;-82
2023/05/25 04:02:39;;;;;;;17.30;7.03;;;7.10;99.90;;;;;;479793;244;27945;-81
2023/05/25 04:04:40;;;;;;;19.63;7.63;;;7.10;99.90;;;;;;479844;248;27871;-81
2023/05/25 04:06:44;;;;;;;10.20;5.90;;;7.10;99.90;;;;;;479817;245;28004;-80
2023/05/25 04:08:43;;;;;;;12.87;7.10;;;7.10;99.90;;;;;;479706;245;27873;-82
2023/05/25 04:10:44;;;;;;;12.37;6.90;;;7.10;99.90;;;;;;479893;244;27983;-81
2023/05/25 04:12:45;;;;;;;13.40;6.67;;;7.10;99.90;;;;;;479808;244;28133;-80
2023/05/25 04:14:46;;;;;;;16.60;7.27;;;7.10;99.90;;;;;;479769;248;27960;-82
2023/05/25 04:16:48;;;;;;;12.97;6.57;;;7.20;99.90;;;;;;479793;248;28096;-83
2023/05/25 04:18:49;;;;;;;15.10;6.57;;;7.10;99.90;;;;;;479876;244;27941;-81
2023/05/25 04:20:50;;;;;;;12.83;7.30;;;7.20;99.90;;;;;;479844;244;28707;-83
2023/05/25 04:22:51;;;;;;;11.80;6.50;;;7.20;99.90;;;;;;479878;244;27961;-81
2023/05/25 04:24:53;;;;;;;13.10;6.63;;;7.30;99.90;;;;;;479826;248;27995;-80
2023/05/25 04:26:55;;;;;;;14.00;7.37;;;7.20;99.90;;;;;;479894;248;27998;-80
2023/05/25 04:28:55;;;;;;;14.20;7.50;;;7.30;99.90;;;;;;479791;245;27991;-82
2023/05/25 04:30:56;;;;;;;14.77;7.40;;;7.30;99.90;;;;;;479852;244;27643;-82
2023/05/25 04:33:01;;;;;;;14.90;7.20;;;7.30;99.90;;;;;;479851;248;28012;-82
2023/05/25 04:34:59;;;;;;;13.03;7.03;;;7.40;99.90;;;;;;479545;248;27977;-79
2023/05/25 04:37:04;;;;;;;11.23;6.67;;;7.40;99.90;;;;;;479924;244;27607;-81
2023/05/25 04:39:03;;;;;;;15.30;6.63;;;7.40;99.90;;;;;;479603;247;27996;-81
2023/05/25 04:41:04;;;;;;;18.13;6.43;;;7.40;99.90;;;;;;479842;248;28105;-80
2023/05/25 04:43:04;;;;;;;11.33;6.07;;;7.50;99.90;;;;;;479810;247;27856;-81
2023/05/25 04:45:05;;;;;;;11.27;5.73;;;7.50;99.90;;;;;;479857;245;28088;-84
2023/05/25 04:47:06;;;;;;;15.37;6.90;;;7.50;99.90;;;;;;479852;245;28495;-84
2023/05/25 04:49:08;;;;;;;9.40;5.50;;;7.60;99.90;;;;;;479823;248;27866;-82
2023/05/25 04:51:10;;;;;;;16.30;5.90;;;7.60;99.90;;;;;;479903;244;28008;-81
2023/05/25 04:53:10;;;;;;;10.37;5.90;;;7.60;99.90;;;;;;479858;248;28463;-83
2023/05/25 04:55:11;;;;;;;12.77;6.03;;;7.70;99.90;;;;;;479899;248;27992;-80
2023/05/25 04:57:13;;;;;;;13.27;6.90;;;7.70;99.90;;;;;;479840;245;27737;-81
2023/05/25 04:59:14;;;;;;;13.20;6.07;;;7.70;99.90;;;;;;479856;248;27736;-82
2023/05/25 05:01:15;;;;;;;14.93;6.27;;;7.70;99.90;;;;;;479840;248;28009;-82
2023/05/25 05:03:16;;;;;;;13.03;6.13;;;7.80;99.90;;;;;;479834;245;27954;-82
2023/05/25 05:05:18;;;;;;;12.93;5.57;;;7.80;99.90;;;;;;479818;245;28078;-82
2023/05/25 05:07:20;;;;;;;18.10;5.60;;;7.80;99.90;;;;;;479801;248;27978;-83
2023/05/25 05:09:20;;;;;;;9.80;5.37;;;7.90;99.90;;;;;;479782;248;27994;-80
2023/05/25 05:11:22;;;;;;;14.20;5.80;;;7.90;99.90;;;;;;479814;245;27971;-80
2023/05/25 05:13:23;;;;;;;13.07;5.60;;;7.90;99.90;;;;;;479844;248;28114;-84
2023/05/25 05:15:25;;;;;;;10.30;5.60;;;7.90;99.90;;;;;;479817;245;28001;-81
2023/05/25 05:17:26;;;;;;;12.00;5.27;;;8.00;99.90;;;;;;479868;248;28032;-82
2023/05/25 05:19:26;;;;;;;10.77;5.80;;;8.00;99.90;;;;;;479838;247;28008;-82
2023/05/25 05:21:28;;;;;;;9.47;5.90;;;8.00;99.90;;;;;;479846;244;27919;-82
2023/05/25 05:23:29;;;;;;;14.57;5.60;;;8.10;99.90;;;;;;479821;248;27958;-83
2023/05/25 05:25:30;;;;;;;11.13;6.00;;;8.10;99.90;;;;;;479820;248;27641;-81
2023/05/25 05:27:31;;;;;;;13.00;5.60;;;8.10;99.90;;;;;;479880;248;27862;-81
2023/05/25 05:29:33;;;;;;;14.23;5.90;;;8.20;99.90;;;;;;479849;246;27559;-81
2023/05/25 05:31:35;;;;;;;12.13;6.23;;;8.30;99.90;;;;;;479860;244;27840;-82
2023/05/25 05:33:35;;;;;;;10.20;5.40;;;8.40;99.90;;;;;;479860;245;27963;-80
2023/05/25 05:35:36;;;;;;;14.17;5.63;;;8.40;99.90;;;;;;479803;245;27731;-82
2023/05/25 05:37:38;;;;;;;14.80;5.60;;;8.40;99.90;;;;;;479850;248;28054;-83
2023/05/25 05:39:39;;;;;;;8.90;5.23;;;8.50;99.90;;;;;;479884;248;28076;-84
2023/05/25 05:41:43;;;;;;;11.70;5.30;;;8.50;99.90;;;;;;479856;248;27989;-80
2023/05/25 05:43:42;;;;;;;11.53;5.00;;;8.60;99.90;;;;;;479633;248;27539;-84
2023/05/25 05:45:43;;;;;;;18.27;5.87;;;8.60;99.90;;;;;;479816;245;27833;-81
2023/05/25 05:47:44;;;;;;;13.60;5.00;;;8.60;99.90;;;;;;479863;248;28070;-82
2023/05/25 05:49:46;;;;;;;14.10;5.33;;;8.70;99.90;;;;;;479813;246;27980;-80
2023/05/25 05:51:47;;;;;;;11.93;5.80;;;8.70;99.90;;;;;;479837;245;28028;-80
2023/05/25 05:53:48;;;;;;;16.40;5.60;;;8.80;99.90;;;;;;479879;248;27599;-81
2023/05/25 05:55:53;;;;;;;14.53;5.97;;;8.80;99.90;;;;;;479882;245;27853;-81
2023/05/25 05:57:50;;;;;;;12.77;5.33;;;8.90;99.90;;;;;;479694;246;27958;-83
2023/05/25 05:59:52;;;;;;;8.87;5.30;;;9.00;99.90;;;;;;479927;248;27972;-80
2023/05/25 06:01:53;;;;;;;13.00;5.63;;;9.10;99.90;;;;;;479923;247;27827;-82
2023/05/25 06:03:54;;;;;;;10.97;5.23;;;9.10;99.90;;;;;;479884;248;27935;-82
2023/05/25 06:05:55;;;;;;;15.80;5.30;;;9.20;99.90;;;;;;479897;244;27896;-80
2023/05/25 06:07:57;;;;;;;12.83;5.40;;;9.30;99.90;;;;;;479902;248;27953;-83
2023/05/25 06:09:58;;;;;;;11.17;5.40;;;9.30;99.90;;;;;;479903;245;28046;-82
2023/05/25 06:12:00;;;;;;;12.40;5.27;;;9.30;99.90;;;;;;479912;248;27982;-82
2023/05/25 06:14:00;;;;;;;9.63;4.80;;;9.50;99.90;;;;;;479892;248;27842;-80
2023/05/25 06:16:02;;;;;;;9.63;4.90;;;9.60;99.90;;;;;;479850;248;27851;-81
2023/05/25 06:18:03;;;;;;;12.70;5.50;;;9.70;99.90;;;;;;479863;244;27875;-81
2023/05/25 06:20:05;;;;;;;18.10;5.67;;;9.70;99.90;;;;;;479937;248;28045;-81
2023/05/25 06:22:05;;;;;;;9.33;4.20;;;9.70;99.90;;;;;;479840;247;28025;-81
2023/05/25 06:24:07;;;;;;;14.17;5.47;;;9.80;99.90;;;;;;479831;246;27967;-80
2023/05/25 06:26:08;;;;;;;15.93;5.10;;;9.90;99.90;;;;;;479868;245;28182;-82
2023/05/25 06:28:09;;;;;;;11.10;4.80;;;10.00;99.90;;;;;;479879;244;27850;-82
2023/05/25 06:30:10;;;;;;;8.43;4.10;;;10.00;99.90;;;;;;479948;248;28234;-80
2023/05/25 06:32:12;;;;;;;12.40;4.83;;;10.10;99.90;;;;;;479906;248;27972;-81
2023/05/25 06:34:13;;;;;;;15.53;4.77;;;10.20;99.90;;;;;;479838;248;28189;-80
2023/05/25 06:36:14;;;;;;;14.47;5.00;;;10.10;99.90;;;;;;473726;238;28317;-81
2023/05/25 06:38:15;;;;;;;12.40;4.20;;;10.20;99.90;;;;;;466018;250;27999;-81
2023/05/25 06:40:17;;;;;;;10.10;4.67;;;10.30;99.90;;;;;;466023;250;28227;-80
2023/05/25 06:42:18;;;;;;;11.20;4.80;;;10.30;99.90;;;;;;478055;239;28160;-82
2023/05/25 06:44:19;;;;;;;7.80;4.60;;;10.40;99.90;;;;;;480132;246;27836;-80
2023/05/25 06:48:26;;;;;;;11.70;4.40;;;10.50;99.90;;;;;;474200;251;28036;-82
2023/05/25 06:50:27;;;;;;;11.27;5.30;;;10.60;99.90;;;;;;474182;251;27956;-79
2023/05/25 06:52:28;;;;;;;16.13;5.17;;;10.60;99.90;;;;;;474222;251;28053;-79
2023/05/25 06:54:30;;;;;;;12.93;4.20;;;10.70;99.90;;;;;;474187;251;28151;-81
2023/05/25 06:56:31;;;;;;;9.20;4.37;;;10.80;99.90;;;;;;474186;251;28176;-80
2023/05/25 06:58:32;;;;;;;13.77;4.90;;;10.80;99.90;;;;;;474230;251;27882;-80
2023/05/25 07:00:33;;;;;;;12.43;4.63;;;10.80;99.90;;;;;;474197;251;28229;-82
2023/05/25 07:02:35;;;;;;;14.00;4.63;;;10.90;99.90;;;;;;474200;251;28240;-80
2023/05/25 07:04:36;;;;;;;10.80;4.47;;;11.00;99.90;;;;;;474198;249;28127;-79
2023/05/25 07:06:37;;;;;;;8.33;3.83;;;11.00;99.90;;;;;;474218;251;28043;-81
2023/05/25 07:08:38;;;;;;;13.70;4.83;;;11.10;99.90;;;;;;474210;251;28239;-80
2023/05/25 07:10:40;;;;;;;19.67;4.63;;;11.30;99.90;;;;;;480668;240;28242;-82
2023/05/25 07:12:41;;;;;;;11.20;4.37;;;11.50;99.90;;;;;;484475;246;28209;-82
2023/05/25 07:14:46;;;;;;;11.07;4.40;;;;;;;;;;484425;246;28143;-83
2023/05/25 07:16:44;;;;;;;9.53;4.43;;;11.60;99.90;;;;;;484293;246;26989;-80
2023/05/25 07:18:46;;;;;;;10.60;3.60;;;11.60;99.90;;;;;;484486;245;28273;-80
2023/05/25 07:20:47;;;;;;;8.67;4.50;;;11.60;99.90;;;;;;484461;239;27983;-80
2023/05/25 07:22:48;;;;;;;10.87;4.63;;;11.60;99.90;;;;;;482388;239;28223;-82
2023/05/25 07:24:49;;;;;;;15.37;4.33;;;11.70;99.90;;;;;;481403;247;28470;-80
2023/05/25 07:26:51;;;;;;;8.00;3.60;;;11.80;99.90;;;;;;481454;248;27938;-80
2023/05/25 07:28:52;;;;;;;10.30;4.53;;;11.80;99.90;;;;;;481441;247;28252;-81
2023/05/25 07:30:53;;;;;;;10.00;4.30;;;11.90;99.90;;;;;;481424;247;28105;-81
2023/05/25 07:32:55;;;;;;;9.47;4.27;;;12.10;99.90;;;;;;481432;247;28505;-81
2023/05/25 07:34:56;;;;;;;8.70;3.83;;;12.20;99.90;;;;;;483515;244;28841;-81
2023/05/25 07:36:57;;;;;;;7.53;3.77;;;12.20;99.90;;;;;;488811;244;28850;-78
2023/05/25 07:38:58;;;;;;;11.50;4.00;;;12.30;99.90;;;;;;489838;243;27947;-81
2023/05/25 07:41:00;;;;;;;6.50;3.50;;;12.30;99.90;;;;;;489781;241;27949;-81
2023/05/25 07:43:01;;;;;;;8.30;4.20;;;12.30;99.90;;;;;;489823;243;28190;-79
2023/05/25 07:45:02;;;;;;;11.70;3.93;;;12.40;99.90;;;;;;489783;243;28302;-81
2023/05/25 07:47:05;;;;;;;10.07;3.60;;;12.50;99.90;;;;;;489745;243;28198;-82
2023/05/25 07:49:10;;;;;;;7.70;3.80;;;12.50;99.90;;;;;;489675;243;28771;-81
2023/05/25 07:51:07;;;;;;;13.80;4.57;;;;;;;;;;489356;243;28614;-81
2023/05/25 07:53:08;;;;;;;9.53;4.07;;;12.80;99.90;;;;;;489794;242;26567;-81
2023/05/25 07:55:10;;;;;;;8.87;4.27;;;12.90;99.90;;;;;;489693;243;28036;-82
2023/05/25 07:57:11;;;;;;;7.50;3.80;;;12.90;99.90;;;;;;489779;243;28070;-82
2023/05/25 07:59:13;;;;;;;11.00;4.00;;;13.10;99.90;;;;;;489843;243;28157;-80
2023/05/25 08:01:14;;;;;;;11.30;4.20;;;13.10;99.90;;;;;;489820;243;28116;-82
2023/05/25 08:03:15;;;;;;;7.20;4.63;;;13.30;99.90;;;;;;489727;243;28141;-80
2023/05/25 08:05:16;;;;;;;8.63;3.60;;;13.30;99.90;;;;;;489667;243;28906;-81
2023/05/25 08:07:17;;;;;;;10.83;3.80;;;13.20;99.90;;;;;;489743;243;28779;-83
2023/05/25 08:09:18;;;;;;;10.27;3.50;;;13.20;99.90;;;;;;489775;243;28808;-84
2023/05/25 08:11:21;;;;;;;7.50;4.00;;;13.30;99.90;;;;;;489761;243;28368;-83
2023/05/25 08:13:21;;;;;;;10.30;4.10;;;13.30;99.90;;;;;;489659;243;28292;-84
2023/05/25 08:15:22;;;;;;;11.20;4.00;;;13.50;99.90;;;;;;489632;243;28089;-81
2023/05/25 08:17:23;;;;;;;10.77;4.17;;;13.60;99.90;;;;;;489581;243;28300;-83
2023/05/25 08:19:25;;;;;;;6.40;3.70;;;13.50;99.90;;;;;;489584;243;28276;-85
2023/05/25 08:21:26;;;;;;;9.50;3.97;;;13.40;99.90;;;;;;489613;243;28191;-82
2023/05/25 08:23:27;;;;;;;10.07;4.07;;;13.40;99.90;;;;;;489601;243;28093;-85
2023/05/25 08:25:28;;;;;;;6.00;3.73;;;13.50;99.90;;;;;;489591;243;28873;-82
2023/05/25 08:27:30;;;;;;;14.17;4.43;;;13.50;99.90;;;;;;489711;243;28864;-82
2023/05/25 08:29:31;;;;;;;12.43;4.30;;;13.50;99.90;;;;;;489657;243;28985;-85
2023/05/25 08:31:32;;;;;;;11.10;4.53;;;13.60;99.90;;;;;;489650;243;28732;-83
2023/05/25 08:33:33;;;;;;;14.43;4.37;;;13.50;99.90;;;;;;489641;243;28338;-86
2023/05/25 08:35:38;;;;;;;12.90;4.87;;;13.60;99.90;;;;;;489555;243;28507;-84
2023/05/25 08:37:36;;;;;;;10.47;4.07;;;13.60;99.90;;;;;;489501;243;28290;-85
2023/05/25 08:39:37;;;;;;;17.30;4.37;;;13.60;99.90;;;;;;489739;243;28380;-82
2023/05/25 08:41:38;;;;;;;9.77;4.40;;;13.70;99.90;;;;;;489682;243;28493;-82
2023/05/25 08:43:40;;;;;;;9.57;4.37;;;13.90;99.90;;;;;;489710;243;28743;-83
2023/05/25 08:45:41;;;;;;;9.60;4.13;;;13.90;99.90;;;;;;489588;243;28667;-82
2023/05/25 08:47:43;;;;;;;11.03;4.60;;;14.10;99.90;;;;;;489642;243;28886;-85
2023/05/25 08:49:43;;;;;;;10.23;4.33;;;13.90;99.90;;;;;;489553;243;28877;-83
2023/05/25 08:51:46;;;;;;;10.17;4.03;;;14.00;99.90;;;;;;489413;243;28423;-83
2023/05/25 08:53:46;;;;;;;11.47;4.20;;;14.10;99.90;;;;;;489332;243;28304;-84
2023/05/25 08:55:47;;;;;;;7.80;4.17;;;14.10;99.90;;;;;;489365;243;29280;-84
2023/05/25 08:57:48;;;;;;;8.30;4.37;;;14.30;99.90;;;;;;489373;243;28552;-85
2023/05/25 08:59:50;;;;;;;12.07;4.77;;;14.30;99.90;;;;;;489380;243;28824;-83
2023/05/25 09:01:51;;;;;;;7.20;3.80;;;14.20;99.90;;;;;;489362;243;28815;-83
2023/05/25 09:03:52;;;;;;;15.10;3.80;;;14.10;99.90;;;;;;489328;243;28868;-84
2023/05/25 09:05:53;;;;;;;8.80;4.50;;;14.30;99.90;;;;;;489254;243;29306;-84
2023/05/25 09:07:55;;;;;;;12.53;4.03;;;14.30;99.90;;;;;;489240;243;29731;-86
2023/05/25 09:09:56;;;;;;;11.10;4.77;;;14.50;99.90;;;;;;489213;243;28946;-85
2023/05/25 09:11:57;;;;;;;9.90;4.40;;;14.60;99.90;;;;;;489184;243;28844;-84
2023/05/25 09:13:58;;;;;;;13.40;4.47;;;14.80;99.90;;;;;;489153;243;28809;-87
2023/05/25 09:16:01;;;;;;;13.27;4.40;;;14.70;99.90;;;;;;489046;243;28825;-84
2023/05/25 09:18:01;;;;;;;8.87;3.80;;;14.80;99.90;;;;;;489024;243;28816;-85
2023/05/25 09:20:02;;;;;;;9.43;4.33;;;14.80;99.90;;;;;;489037;243;28834;-85
2023/05/25 09:22:03;;;;;;;9.80;4.70;;;14.80;99.90;;;;;;488960;243;28823;-84
2023/05/25 09:24:05;;;;;;;11.80;4.20;;;14.70;99.90;;;;;;489065;243;28937;-86
2023/05/25 09:26:06;;;;;;;11.70;4.33;;;14.80;99.90;;;;;;489018;243;28912;-87
2023/05/25 09:28:08;;;;;;;12.30;4.67;;;14.70;99.90;;;;;;489101;243;29476;-82
2023/05/25 09:30:08;;;;;;;9.17;4.40;;;14.90;99.90;;;;;;489092;243;29264;-86
2023/05/25 09:32:10;;;;;;;13.73;4.97;;;14.80;99.90;;;;;;489143;243;28809;-86
2023/05/25 09:34:11;;;;;;;15.43;4.90;;;14.90;99.90;;;;;;487361;243;36105;-81
2023/05/25 09:36:14;;;;;;;11.77;4.50;;;15.00;99.90;;;;;;489055;243;27641;-84
2023/05/25 09:38:14;;;;;;;8.40;4.30;;;15.10;99.90;;;;;;488913;243;28815;-85
2023/05/25 09:40:15;;;;;;;12.43;4.80;;;15.20;99.90;;;;;;488936;243;28816;-86
2023/05/25 09:42:16;;;;;;;15.53;4.57;;;15.40;99.90;;;;;;488920;243;28824;-83
2023/05/25 09:44:17;;;;;;;10.30;3.77;;;15.20;99.90;;;;;;488909;243;28812;-85
2023/05/25 09:46:18;;;;;;;10.03;4.37;;;15.40;99.90;;;;;;488906;243;29250;-85
2023/05/25 09:48:20;;;;;;;10.27;5.23;;;15.40;99.90;;;;;;488869;243;29353;-87
2023/05/25 09:50:21;;;;;;;10.37;4.90;;;15.60;99.90;;;;;;488841;243;28832;-84
2023/05/25 09:52:22;;;;;;;7.40;4.40;;;15.70;99.80;;;;;;488774;243;28923;-84
2023/05/25 09:54:23;;;;;;;8.37;5.03;;;15.80;99.90;;;;;;488732;243;28803;-87
2023/05/25 09:56:25;;;;;;;11.83;4.60;;;15.80;99.60;;;;;;488807;241;28823;-87
2023/05/25 09:58:26;;;;;;;8.40;4.50;;;15.60;99.60;;;;;;488832;243;28871;-86
2023/05/25 10:00:27;;;;;;;12.87;4.53;;;15.80;99.90;;;;;;488784;243;28817;-85
2023/05/25 10:02:28;;;;;;;9.63;4.80;;;15.70;99.10;;;;;;488753;243;28830;-84
2023/05/25 10:04:30;;;;;;;10.97;5.37;;;15.90;98.90;;;;;;488720;243;28835;-86
2023/05/25 10:06:32;;;;;;;7.20;4.20;;;15.90;98.40;;;;;;488732;243;29408;-85
2023/05/25 10:08:32;;;;;;;7.83;4.33;;;15.70;98.10;;;;;;488789;243;29672;-86
2023/05/25 10:10:33;;;;;;;9.10;4.57;;;15.80;98.40;;;;;;488760;243;29268;-86
2023/05/25 10:12:35;;;;;;;7.93;4.07;;;15.90;98.90;;;;;;488740;243;28826;-84
2023/05/25 10:14:36;;;;;;;11.97;4.90;;;15.80;97.40;;;;;;488712;243;28809;-86
2023/05/25 10:16:37;;;;;;;12.03;4.77;;;16.00;98.10;;;;;;488722;243;28820;-85
2023/05/25 10:18:38;;;;;;;9.23;3.90;;;16.00;97.80;;;;;;488698;243;28819;-85
2023/05/25 10:20:40;;;;;;;10.77;4.67;;;15.90;97.80;;;;;;488733;243;28931;-85
2023/05/25 10:22:41;;;;;;;15.23;5.10;;;15.60;99.00;;;;;;488791;243;28899;-85
2023/05/25 10:24:43;;;;;;;8.87;5.00;;;15.90;98.40;;;;;;488708;243;28849;-87
2023/05/25 10:26:43;;;;;;;6.53;4.17;;;15.70;96.90;;;;;;488736;243;28920;-85
2023/05/25 10:28:45;;;;;;;13.27;5.20;;;15.90;97.00;;;;;;488701;243;29356;-85
2023/05/25 10:30:46;;;;;;;16.70;4.97;;;16.00;97.60;;;;;;488691;243;29278;-86